Aquilla, Texas
Current Conditions -  °F | °C
As of 1:03 PM on Thursday 18 Dec 2014 (Local Time) from KACT Reporting Station
Haze Haze  
Wind Chill: 52°   Ceiling: 500
Heat Index: 52°   Visibility: 4mi
Dew Point: 49°   Wind: 6mph
Humidity: 89%   Direction: 350°N
Pressure: 30.12"   Gusts: NA
Location:  31.85°N, 97.22°W
Report Text: KACT 181903Z 35005KT 4SM BR OVC005 11/09 A3012 RMK AO2 T01110094
Loading
Personal Weather Stations






























Interactive Weather Map New forecast layout! Learn more

10-Day Weather Forecast

Advertisements
Track Severe Weather on mobile